Time;durP1;ratioP1;P1;durP2;ratioP2;P2;SDS_P1;SDS_P2;PMS_P1;PMS_P2;Temp;Humidity;BMP_temperature;BMP_pressure;BME280_temperature;BME280_humidity;BME280_pressure;Samples;Min_cycle;Max_cycle;Signal;HPM_P1;HPM_P2
2022/08/20 00:00:30;;;;;;;25.03;15.17;;;20.80;99.90;;;;;;5032344;28;20062;-56
2022/08/20 00:02:59;;;;;;;26.40;15.52;;;20.70;99.90;;;;;;5032653;28;20366;-56
2022/08/20 00:05:35;;;;;;;24.52;15.50;;;20.60;99.90;;;;;;5032472;28;20111;-56
2022/08/20 00:08:02;;;;;;;23.30;15.93;;;20.60;99.90;;;;;;5032237;28;20592;-55
2022/08/20 00:10:29;;;;;;;;;;;20.60;99.90;;;;;;5032891;28;20025;-56
2022/08/20 00:12:55;;;;;;;29.85;18.20;;;20.50;99.90;;;;;;5031600;28;19908;-56
2022/08/20 00:15:25;;;;;;;32.90;20.63;;;20.50;99.90;;;;;;5032153;28;20022;-56
2022/08/20 00:17:51;;;;;;;30.15;19.25;;;20.40;99.90;;;;;;5032039;28;20296;-56
2022/08/20 00:20:20;;;;;;;28.60;19.05;;;20.50;99.90;;;;;;5031845;28;20041;-56
2022/08/20 00:22:46;;;;;;;26.95;19.98;;;20.50;99.90;;;;;;5032063;28;20037;-56
2022/08/20 00:25:13;;;;;;;27.95;19.75;;;20.50;99.90;;;;;;5030705;28;20366;-57
2022/08/20 00:27:39;;;;;;;29.17;18.92;;;20.60;99.90;;;;;;5032164;28;20029;-56
2022/08/20 00:30:08;;;;;;;29.38;20.30;;;20.60;99.90;;;;;;5031860;28;20448;-56
2022/08/20 00:32:53;;;;;;;26.25;19.45;;;20.70;99.90;;;;;;5031887;28;20500;-56
2022/08/20 00:35:21;;;;;;;29.13;19.50;;;20.70;99.90;;;;;;5032095;28;20030;-56
2022/08/20 00:37:47;;;;;;;28.77;20.08;;;20.80;99.90;;;;;;5031594;28;20485;-57
2022/08/20 00:40:19;;;;;;;31.27;20.70;;;20.80;99.90;;;;;;5031583;28;20030;-56
2022/08/20 00:42:49;;;;;;;28.30;19.50;;;20.80;99.90;;;;;;5031579;28;20030;-56
2022/08/20 00:45:17;;;;;;;34.53;18.65;;;20.80;99.90;;;;;;5031776;28;20028;-56
2022/08/20 00:47:43;;;;;;;27.65;18.23;;;20.80;99.90;;;;;;5031491;28;20037;-57
2022/08/20 00:50:11;;;;;;;27.45;18.58;;;20.90;99.90;;;;;;5031760;28;20034;-57
2022/08/20 00:52:41;;;;;;;24.85;18.00;;;20.90;99.90;;;;;;5031352;28;20041;-57
2022/08/20 00:55:09;;;;;;;27.50;19.60;;;20.90;99.90;;;;;;5031394;28;20038;-56
2022/08/20 00:57:52;;;;;;;26.25;19.30;;;20.90;99.90;;;;;;5031279;28;20033;-57
2022/08/20 01:00:28;;;;;;;26.60;18.50;;;20.90;99.90;;;;;;5030260;28;20044;-56
2022/08/20 01:02:55;;;;;;;25.83;18.38;;;20.80;99.90;;;;;;5031128;28;20030;-57
2022/08/20 01:05:22;;;;;;;24.50;18.50;;;20.80;99.90;;;;;;5031272;28;20029;-56
2022/08/20 01:07:52;;;;;;;26.45;18.48;;;20.70;99.90;;;;;;5031291;28;20025;-57
2022/08/20 01:10:21;;;;;;;31.67;18.45;;;20.70;99.90;;;;;;5031131;28;20030;-55
2022/08/20 01:12:48;;;;;;;25.77;18.23;;;20.80;99.90;;;;;;5031059;28;20025;-55
2022/08/20 01:15:17;;;;;;;32.30;19.33;;;20.70;99.90;;;;;;5030807;28;20113;-55
2022/08/20 01:17:48;;;;;;;26.77;18.38;;;20.60;99.90;;;;;;5030908;28;20118;-55
2022/08/20 01:20:41;;;;;;;30.30;17.75;;;20.60;99.90;;;;;;5030770;28;20049;-55
2022/08/20 01:23:28;;;;;;;23.65;17.75;;;20.60;99.90;;;;;;5028890;28;20064;-55
2022/08/20 01:26:21;;;;;;;25.17;17.42;;;20.50;99.90;;;;;;5030815;28;20465;-55
2022/08/20 01:28:52;;;;;;;24.92;19.13;;;20.50;99.90;;;;;;5030857;28;20569;-55
2022/08/20 01:31:25;;;;;;;26.85;18.13;;;20.60;99.90;;;;;;5030616;28;20026;-55
2022/08/20 01:33:52;;;;;;;29.52;20.20;;;20.60;99.90;;;;;;5030658;28;20029;-55
2022/08/20 01:36:21;;;;;;;25.35;20.15;;;20.60;99.90;;;;;;5030596;28;20026;-55
2022/08/20 01:38:47;;;;;;;33.42;21.13;;;20.60;99.90;;;;;;5030463;28;20041;-55
2022/08/20 01:41:42;;;;;;;28.20;20.30;;;20.60;99.90;;;;;;5028977;28;20036;-55
2022/08/20 01:44:08;;;;;;;27.23;18.85;;;20.60;99.90;;;;;;5030386;28;20029;-55
2022/08/20 01:46:37;;;;;;;33.28;20.52;;;20.60;99.90;;;;;;5030267;28;20034;-55
2022/08/20 01:49:17;;;;;;;34.17;21.13;;;20.50;99.90;;;;;;5030305;28;20048;-55
2022/08/20 01:51:43;;;;;;;30.38;20.80;;;20.50;99.90;;;;;;5028884;28;20121;-55
2022/08/20 01:54:09;;;;;;;35.20;22.67;;;20.50;99.90;;;;;;5030028;28;20116;-55
2022/08/20 01:56:49;;;;;;;28.55;20.73;;;20.50;99.90;;;;;;5030415;28;20029;-55
2022/08/20 01:59:14;;;;;;;37.72;22.77;;;20.40;99.90;;;;;;5030075;28;20060;-55
2022/08/20 02:01:40;;;;;;;42.72;23.33;;;20.40;99.90;;;;;;5030041;28;20477;-55
2022/08/20 02:04:08;;;;;;;31.77;22.65;;;20.30;99.90;;;;;;5030042;28;20048;-55
2022/08/20 02:06:40;;;;;;;33.03;21.98;;;20.30;99.90;;;;;;5030187;28;20104;-55
2022/08/20 02:09:08;;;;;;;32.28;22.98;;;20.30;99.90;;;;;;5028964;28;20036;-55
2022/08/20 02:11:34;;;;;;;33.80;22.85;;;20.30;99.90;;;;;;5030070;28;20105;-55
2022/08/20 02:14:01;;;;;;;35.67;20.98;;;20.30;99.90;;;;;;5030091;28;20036;-55
2022/08/20 02:16:30;;;;;;;29.60;21.48;;;20.30;99.90;;;;;;5029768;28;20043;-55
2022/08/20 02:19:16;;;;;;;31.73;22.45;;;20.30;99.90;;;;;;5029623;28;20061;-55
2022/08/20 02:21:45;;;;;;;32.40;23.10;;;20.30;99.90;;;;;;5029960;28;20036;-55
2022/08/20 02:24:11;;;;;;;33.92;22.55;;;20.30;99.90;;;;;;5029854;28;20037;-55
2022/08/20 02:26:38;;;;;;;36.33;23.52;;;20.30;99.90;;;;;;5028389;28;20029;-55
2022/08/20 02:29:09;;;;;;;31.85;21.67;;;20.30;99.90;;;;;;5029763;28;20036;-55
2022/08/20 02:31:36;;;;;;;37.28;22.33;;;20.30;99.90;;;;;;5029872;28;20059;-55
2022/08/20 02:34:04;;;;;;;35.75;23.30;;;20.40;99.90;;;;;;5029588;28;20033;-55
2022/08/20 02:36:29;;;;;;;30.33;22.48;;;20.40;99.90;;;;;;5029582;28;20055;-54
2022/08/20 02:38:55;;;;;;;32.90;22.33;;;20.40;99.90;;;;;;5029673;28;20489;-55
2022/08/20 02:41:21;;;;;;;28.23;23.40;;;20.50;99.90;;;;;;5029680;28;20034;-55
2022/08/20 02:43:48;;;;;;;32.63;21.23;;;20.50;99.90;;;;;;5028158;28;20424;-55
2022/08/20 02:46:15;;;;;;;30.73;22.17;;;20.40;99.90;;;;;;5029290;28;20025;-55
2022/08/20 02:48:41;;;;;;;33.03;23.10;;;20.40;99.90;;;;;;5029671;28;20056;-55
2022/08/20 02:51:07;;;;;;;28.55;21.60;;;20.40;99.90;;;;;;5029792;28;20064;-55
2022/08/20 02:53:37;;;;;;;29.65;21.17;;;20.40;99.90;;;;;;5029469;28;20495;-55
2022/08/20 02:56:04;;;;;;;29.08;22.05;;;20.50;99.90;;;;;;5029461;28;20029;-55
2022/08/20 02:58:30;;;;;;;27.38;20.80;;;20.50;99.90;;;;;;5029503;28;20041;-55
2022/08/20 03:00:56;;;;;;;31.08;21.33;;;20.50;99.90;;;;;;5029229;28;20416;-55
2022/08/20 03:03:23;;;;;;;31.02;21.40;;;20.50;99.90;;;;;;5029414;28;20033;-55
2022/08/20 03:05:56;;;;;;;30.67;22.35;;;20.60;99.90;;;;;;5029620;28;20030;-55
2022/08/20 03:08:23;;;;;;;29.67;19.90;;;20.60;99.90;;;;;;5029413;28;20401;-55
2022/08/20 03:10:50;;;;;;;32.45;22.33;;;20.60;99.90;;;;;;5029429;28;20025;-55
2022/08/20 03:13:16;;;;;;;;;;;20.70;99.90;;;;;;5029700;28;20041;-55
2022/08/20 03:15:46;;;;;;;28.02;20.23;;;20.70;99.90;;;;;;5029526;28;19904;-55
2022/08/20 03:18:13;;;;;;;29.33;21.15;;;20.70;99.90;;;;;;5029038;28;20500;-56
2022/08/20 03:20:39;;;;;;;29.65;21.88;;;20.80;99.90;;;;;;5029225;28;20068;-55
2022/08/20 03:23:05;;;;;;;30.35;21.05;;;20.70;99.90;;;;;;5029073;28;20065;-55
2022/08/20 03:25:32;;;;;;;31.65;22.65;;;20.60;99.90;;;;;;5028890;28;20057;-55
2022/08/20 03:27:58;;;;;;;29.58;22.80;;;20.50;99.90;;;;;;5029375;28;20032;-55
2022/08/20 03:30:26;;;;;;;32.00;24.42;;;20.40;99.90;;;;;;5029296;28;20029;-55
2022/08/20 03:32:52;;;;;;;34.13;24.38;;;20.50;99.90;;;;;;5029242;28;20064;-55
2022/08/20 03:35:20;;;;;;;31.48;23.92;;;20.50;99.90;;;;;;5029264;28;20021;-56
2022/08/20 03:37:46;;;;;;;34.97;24.60;;;20.60;99.90;;;;;;5029036;28;20472;-55
2022/08/20 03:40:15;;;;;;;37.58;24.70;;;20.60;99.90;;;;;;5028837;28;20543;-55
2022/08/20 03:42:41;;;;;;;34.45;24.52;;;20.60;99.90;;;;;;5029273;28;20159;-54
2022/08/20 03:45:09;;;;;;;29.98;22.13;;;20.60;99.90;;;;;;5029169;28;20041;-54
2022/08/20 03:47:35;;;;;;;30.75;21.33;;;20.60;99.90;;;;;;5030315;28;20049;-55
2022/08/20 03:50:03;;;;;;;30.08;21.52;;;20.60;99.90;;;;;;5032553;28;20025;-55
2022/08/20 03:52:28;;;;;;;28.58;20.23;;;20.60;99.90;;;;;;5032895;28;20155;-55
2022/08/20 03:54:55;;;;;;;30.80;20.48;;;20.60;99.90;;;;;;5032524;28;20104;-55
2022/08/20 03:57:21;;;;;;;29.10;21.17;;;20.60;99.90;;;;;;5032662;28;20033;-55
2022/08/20 03:59:46;;;;;;;30.20;21.40;;;20.60;99.90;;;;;;5032394;28;20052;-54
2022/08/20 04:02:12;;;;;;;31.00;21.05;;;20.60;99.90;;;;;;5032295;28;20075;-55
2022/08/20 04:04:39;;;;;;;29.42;22.60;;;20.60;99.90;;;;;;5032310;28;20029;-55
2022/08/20 04:07:19;;;;;;;28.38;21.52;;;20.60;99.90;;;;;;5032323;28;20021;-55
2022/08/20 04:09:45;;;;;;;29.77;21.67;;;20.60;99.90;;;;;;5032417;28;20033;-55
2022/08/20 04:12:13;;;;;;;25.15;20.13;;;20.60;99.90;;;;;;5032155;28;20021;-55
2022/08/20 04:14:39;;;;;;;30.48;21.10;;;20.60;99.90;;;;;;5032312;28;20057;-55
2022/08/20 04:17:11;;;;;;;31.40;23.05;;;20.60;99.90;;;;;;5031956;28;20045;-55
2022/08/20 04:19:37;;;;;;;33.10;22.05;;;20.60;99.90;;;;;;5031926;28;20062;-54
2022/08/20 04:22:04;;;;;;;33.97;23.45;;;20.40;99.90;;;;;;5032006;28;20099;-55
2022/08/20 04:24:30;;;;;;;33.03;21.87;;;20.40;99.90;;;;;;5031887;28;20051;-54
2022/08/20 04:26:57;;;;;;;27.67;23.55;;;20.40;99.90;;;;;;5031948;28;20083;-54
2022/08/20 04:29:24;;;;;;;35.38;24.02;;;20.40;99.90;;;;;;5031835;28;20030;-55
2022/08/20 04:31:51;;;;;;;35.28;23.88;;;20.50;99.90;;;;;;5031642;28;20564;-55
2022/08/20 04:34:18;;;;;;;34.42;23.05;;;20.50;99.90;;;;;;5031870;28;20432;-55
2022/08/20 04:36:47;;;;;;;31.52;23.58;;;20.60;99.90;;;;;;5031624;28;20084;-55
2022/08/20 04:39:16;;;;;;;33.20;24.65;;;20.60;99.90;;;;;;5031700;28;20134;-54
2022/08/20 04:41:42;;;;;;;32.25;24.65;;;20.60;99.90;;;;;;5031752;28;20045;-55
2022/08/20 04:44:09;;;;;;;38.05;24.80;;;20.60;99.90;;;;;;5031554;28;20114;-55
2022/08/20 04:46:36;;;;;;;;;;;20.60;99.90;;;;;;5031839;28;20029;-54
2022/08/20 04:49:03;;;;;;;36.03;24.15;;;20.60;99.90;;;;;;5031448;28;19932;-54
2022/08/20 04:51:29;;;;;;;35.60;24.55;;;20.60;99.90;;;;;;5031474;28;20029;-55
2022/08/20 04:53:56;;;;;;;33.33;24.07;;;20.60;99.90;;;;;;5031285;28;20030;-54
2022/08/20 04:56:24;;;;;;;33.92;25.65;;;20.60;99.90;;;;;;5031450;28;20269;-54
2022/08/20 04:58:52;;;;;;;36.60;26.17;;;20.60;99.90;;;;;;5030945;28;20045;-54
2022/08/20 05:01:18;;;;;;;31.65;25.17;;;20.60;99.90;;;;;;5029770;28;20033;-54
2022/08/20 05:03:46;;;;;;;35.28;25.20;;;20.60;99.90;;;;;;5031046;28;20030;-54
2022/08/20 05:06:12;;;;;;;33.22;24.67;;;20.60;99.90;;;;;;5031189;28;20021;-54
2022/08/20 05:08:39;;;;;;;32.80;24.13;;;20.60;99.90;;;;;;5031025;28;20025;-54
2022/08/20 05:11:08;;;;;;;38.92;25.98;;;20.60;99.90;;;;;;5030902;28;20052;-55
2022/08/20 05:13:34;;;;;;;33.85;24.63;;;20.60;99.90;;;;;;5031011;28;20079;-55
2022/08/20 05:16:01;;;;;;;34.65;23.95;;;20.70;99.90;;;;;;5031063;28;20017;-55
2022/08/20 05:18:30;;;;;;;31.20;23.50;;;20.70;99.90;;;;;;5030479;28;20232;-56
2022/08/20 05:21:01;;;;;;;34.28;25.13;;;20.70;99.90;;;;;;5030751;28;20518;-55
2022/08/20 05:23:27;;;;;;;32.20;24.33;;;20.70;99.90;;;;;;5030739;28;20404;-55
2022/08/20 05:25:53;;;;;;;34.83;24.88;;;20.80;99.90;;;;;;5029399;28;20025;-55
2022/08/20 05:28:25;;;;;;;35.35;26.00;;;20.80;99.90;;;;;;5030882;28;20035;-54
2022/08/20 05:30:52;;;;;;;32.42;24.77;;;20.80;99.90;;;;;;5030612;28;20064;-55
2022/08/20 05:33:20;;;;;;;32.67;24.10;;;20.90;99.90;;;;;;5030817;28;20026;-55
2022/08/20 05:35:49;;;;;;;33.42;25.38;;;21.00;99.90;;;;;;5030687;28;20041;-55
2022/08/20 05:38:17;;;;;;;34.97;25.30;;;21.10;99.90;;;;;;5030391;28;20037;-55
2022/08/20 05:40:44;;;;;;;34.17;25.70;;;21.10;99.90;;;;;;5030660;28;20022;-55
2022/08/20 05:43:10;;;;;;;30.80;24.97;;;21.20;99.90;;;;;;5033794;28;20032;-55
2022/08/20 05:45:38;;;;;;;36.85;27.63;;;21.30;99.90;;;;;;5041235;28;20834;-55
2022/08/20 05:48:06;;;;;;;34.97;25.90;;;21.30;99.90;;;;;;5042771;28;20120;-55
2022/08/20 05:50:32;;;;;;;37.20;25.88;;;21.40;99.90;;;;;;5040474;28;20078;-55
2022/08/20 05:53:00;;;;;;;35.03;25.13;;;21.50;99.90;;;;;;5039305;28;20033;-55
2022/08/20 05:55:27;;;;;;;35.67;26.00;;;21.50;99.90;;;;;;5040639;28;20299;-55
2022/08/20 05:58:00;;;;;;;32.17;25.17;;;21.60;99.90;;;;;;5039217;28;20128;-55
2022/08/20 06:00:27;;;;;;;37.40;26.25;;;21.60;99.90;;;;;;5039821;28;20029;-55
2022/08/20 06:05:37;;;;;;;33.22;23.33;;;21.70;99.90;;;;;;5038054;28;20091;-55
2022/08/20 06:08:05;;;;;;;29.13;23.60;;;21.70;99.90;;;;;;5037987;28;20731;-55
2022/08/20 06:10:31;;;;;;;39.17;21.60;;;21.70;99.90;;;;;;5036883;28;20548;-55
2022/08/20 06:12:56;;;;;;;32.35;22.83;;;21.60;99.90;;;;;;5038403;28;20124;-54
2022/08/20 06:15:22;;;;;;;34.20;21.35;;;21.60;99.90;;;;;;5039696;28;20021;-55
2022/08/20 06:17:48;;;;;;;31.98;23.42;;;21.60;99.90;;;;;;5034875;28;20425;-55
2022/08/20 06:20:13;;;;;;;32.50;24.02;;;21.70;99.90;;;;;;5038814;28;20045;-55
2022/08/20 06:22:39;;;;;;;29.85;23.30;;;21.80;99.90;;;;;;5039145;28;20017;-55
2022/08/20 06:25:06;;;;;;;32.60;24.60;;;21.80;99.90;;;;;;5037605;28;20029;-55
2022/08/20 06:27:32;;;;;;;;;;;21.90;99.90;;;;;;5039564;28;20029;-55
2022/08/20 06:29:59;;;;;;;37.17;22.17;;;22.00;99.90;;;;;;5038970;28;20018;-55
2022/08/20 06:32:25;;;;;;;42.92;23.67;;;22.00;99.90;;;;;;5038084;28;20035;-55
2022/08/20 06:34:51;;;;;;;33.97;23.95;;;22.10;99.90;;;;;;5039975;28;20033;-55
2022/08/20 06:37:23;;;;;;;39.08;24.65;;;22.10;99.90;;;;;;5038255;28;20025;-55
2022/08/20 06:39:52;;;;;;;36.35;24.35;;;22.20;99.90;;;;;;5035220;28;20021;-55
2022/08/20 06:42:20;;;;;;;34.65;23.27;;;22.10;99.90;;;;;;5038180;28;20167;-54
2022/08/20 06:44:48;;;;;;;31.65;21.48;;;22.20;99.90;;;;;;5039400;28;20029;-55
2022/08/20 06:47:16;;;;;;;34.15;22.33;;;22.30;99.90;;;;;;5038274;28;20393;-55
2022/08/20 06:49:42;;;;;;;;;;;22.30;99.90;;;;;;5037477;28;20561;-56
2022/08/20 06:52:08;;;;;;;26.45;18.92;;;22.40;99.90;;;;;;5039141;28;19911;-55
2022/08/20 06:54:33;;;;;;;24.52;16.15;;;22.40;99.90;;;;;;5038035;28;20030;-56
2022/08/20 06:57:01;;;;;;;29.25;16.65;;;22.50;99.90;;;;;;5037772;28;20021;-55
2022/08/20 06:59:26;;;;;;;27.67;18.40;;;22.50;99.90;;;;;;5038970;28;20040;-55
2022/08/20 07:01:55;;;;;;;28.83;20.73;;;22.60;99.90;;;;;;5037694;28;20469;-55
2022/08/20 07:04:25;;;;;;;32.80;20.17;;;22.70;99.90;;;;;;5037418;28;20025;-55
2022/08/20 07:06:56;;;;;;;28.17;17.63;;;22.70;99.90;;;;;;5035150;28;20045;-55
2022/08/20 07:09:22;;;;;;;24.10;18.55;;;22.80;99.90;;;;;;5037443;28;20072;-55
2022/08/20 07:11:48;;;;;;;29.92;18.80;;;22.90;99.90;;;;;;5033137;28;20436;-55
2022/08/20 07:14:15;;;;;;;25.77;15.43;;;22.80;99.90;;;;;;5049190;28;20021;-55
2022/08/20 07:16:42;;;;;;;20.70;16.50;;;22.80;99.90;;;;;;5049239;28;20703;-55
2022/08/20 07:19:08;;;;;;;25.77;14.82;;;23.00;99.90;;;;;;5048796;28;20120;-55
2022/08/20 07:21:34;;;;;;;23.40;15.35;;;23.00;99.90;;;;;;5049431;28;20029;-55
2022/08/20 07:24:00;;;;;;;23.45;15.05;;;23.00;99.90;;;;;;5052908;28;20032;-55
2022/08/20 07:26:25;;;;;;;28.45;20.42;;;23.20;99.90;;;;;;5053046;28;20477;-55
2022/08/20 07:28:51;;;;;;;26.15;14.85;;;23.20;99.90;;;;;;5052729;28;20400;-55
2022/08/20 07:34:02;;;;;;;18.77;12.48;;;23.10;99.90;;;;;;5053098;28;20040;-55
2022/08/20 07:36:28;;;;;;;22.55;11.30;;;23.30;99.90;;;;;;5052899;28;20483;-55
2022/08/20 07:38:54;;;;;;;19.38;10.07;;;23.30;99.90;;;;;;5052573;28;20037;-54
2022/08/20 07:41:20;;;;;;;17.45;12.55;;;23.40;99.90;;;;;;5052854;28;20393;-55
2022/08/20 07:43:46;;;;;;;24.60;11.30;;;23.40;99.90;;;;;;5052835;28;20600;-56
2022/08/20 07:46:18;;;;;;;15.35;11.02;;;23.50;99.90;;;;;;5052835;28;20025;-55
2022/08/20 07:48:48;;;;;;;17.83;8.32;;;23.50;99.90;;;;;;5052471;28;20021;-55
2022/08/20 07:51:16;;;;;;;16.52;9.40;;;23.50;99.90;;;;;;5052775;28;20025;-55
2022/08/20 07:53:43;;;;;;;17.55;7.85;;;23.50;99.90;;;;;;5046795;28;20492;-55
2022/08/20 07:56:12;;;;;;;18.98;8.73;;;23.50;99.90;;;;;;5041021;28;20021;-55
2022/08/20 07:58:42;;;;;;;17.92;8.70;;;24.00;99.90;;;;;;5041757;28;20048;-55
2022/08/20 08:01:10;;;;;;;19.42;9.95;;;24.30;99.90;;;;;;5042554;28;20024;-55
2022/08/20 08:03:36;;;;;;;19.35;9.30;;;24.30;99.90;;;;;;5039071;28;20029;-55
2022/08/20 08:06:02;;;;;;;15.20;10.57;;;24.40;99.90;;;;;;5039962;28;20048;-55
2022/08/20 08:08:31;;;;;;;15.10;9.23;;;24.20;99.90;;;;;;5041766;28;20040;-55
2022/08/20 08:10:59;;;;;;;19.85;10.00;;;24.40;99.90;;;;;;5041153;28;20018;-55
2022/08/20 08:13:27;;;;;;;21.10;10.52;;;24.70;99.90;;;;;;5037248;28;20484;-55
2022/08/20 08:15:56;;;;;;;20.00;10.98;;;24.80;99.90;;;;;;5032030;28;20111;-56
2022/08/20 08:18:26;;;;;;;19.48;10.10;;;24.70;99.90;;;;;;5031868;28;20103;-55
2022/08/20 08:20:52;;;;;;;18.35;11.10;;;24.80;99.90;;;;;;5031910;28;20041;-56
2022/08/20 08:23:20;;;;;;;15.55;10.35;;;24.80;99.90;;;;;;5032241;28;20441;-56
2022/08/20 08:25:46;;;;;;;15.98;9.70;;;24.90;99.90;;;;;;5031660;28;20030;-56
2022/08/20 08:28:13;;;;;;;18.80;10.48;;;24.80;99.90;;;;;;5034327;28;20090;-55
2022/08/20 08:30:43;;;;;;;18.90;10.55;;;24.90;99.90;;;;;;5042801;28;20024;-55
2022/08/20 08:33:26;;;;;;;18.40;10.90;;;25.30;99.90;;;;;;5049527;28;20032;-55
2022/08/20 08:35:53;;;;;;;18.48;10.48;;;25.20;99.90;;;;;;5050589;28;20029;-55
2022/08/20 08:38:21;;;;;;;15.60;10.32;;;25.10;99.90;;;;;;5051050;28;20040;-57
2022/08/20 08:40:48;;;;;;;20.67;10.95;;;25.20;99.90;;;;;;5051658;28;20487;-56
2022/08/20 08:43:14;;;;;;;17.45;11.05;;;25.30;99.90;;;;;;5051345;28;20029;-56
2022/08/20 08:45:50;;;;;;;16.20;11.40;;;25.50;99.90;;;;;;5051339;28;20039;-56
2022/08/20 08:48:18;;;;;;;17.98;11.05;;;25.70;99.90;;;;;;5048506;28;20032;-56
2022/08/20 08:50:47;;;;;;;23.25;11.38;;;25.90;99.90;;;;;;5049637;28;20029;-56
2022/08/20 08:53:29;;;;;;;17.17;11.52;;;25.70;99.90;;;;;;5050520;28;20112;-56
2022/08/20 08:55:54;;;;;;;17.17;10.13;;;25.60;99.90;;;;;;5051304;28;20124;-57
2022/08/20 08:58:20;;;;;;;15.93;10.05;;;25.70;99.90;;;;;;5045333;28;20132;-57
2022/08/20 09:00:46;;;;;;;19.42;9.70;;;25.70;99.90;;;;;;5041381;28;20441;-57
2022/08/20 09:03:23;;;;;;;19.92;10.30;;;25.80;99.90;;;;;;5040441;28;20029;-57
2022/08/20 09:05:57;;;;;;;17.65;7.95;;;26.10;99.90;;;;;;5031214;28;20029;-57
2022/08/20 09:08:42;;;;;;;18.00;9.70;;;26.10;99.90;;;;;;5039681;28;20503;-57
2022/08/20 09:11:09;;;;;;;20.10;9.75;;;26.30;99.90;;;;;;5040304;28;20025;-57
2022/08/20 09:13:35;;;;;;;18.20;8.05;;;26.30;99.90;;;;;;5038257;28;20025;-57
2022/08/20 09:16:00;;;;;;;14.60;7.28;;;26.20;99.90;;;;;;5032840;28;20037;-57
2022/08/20 09:18:26;;;;;;;17.63;8.52;;;26.50;99.90;;;;;;5038221;28;20065;-56
2022/08/20 09:20:53;;;;;;;14.82;7.30;;;26.60;99.90;;;;;;5097837;22;20085;-91
2022/08/20 09:23:18;;;;;;;16.40;7.70;;;26.60;99.90;;;;;;4989396;28;20462;-92
2022/08/20 09:25:47;;;;;;;15.52;8.23;;;26.70;99.90;;;;;;4986790;28;20274;-92
2022/08/20 09:29:06;;;;;;;12.75;7.20;;;27.00;99.90;;;;;;4987292;28;20117;-91
2022/08/20 09:35:20;;;;;;;16.75;8.80;;;27.20;99.90;;;;;;4981694;28;20114;-91
2022/08/20 09:37:58;;;;;;;;;;;;;;;;;;;;;
2022/08/20 09:40:45;;;;;;;;;;;;;;;;;;;;;
2022/08/20 09:47:27;;;;;;;13.45;7.22;;;27.40;99.90;;;;;;4939001;29;20191;-92
2022/08/20 09:51:01;;;;;;;;;;;;;;;;;;;;;
2022/08/20 09:54:19;;;;;;;14.45;4.75;;;27.50;99.90;;;;;;4871523;29;20340;-92
2022/08/20 10:03:14;;;;;;;15.02;6.38;;;27.50;99.90;;;;;;4846555;29;20073;-92
2022/08/20 10:05:40;;;;;;;15.45;7.32;;;27.40;99.90;;;;;;4872437;29;20041;-90
2022/08/20 10:08:20;;;;;;;;;;;;;;;;;;;;;
2022/08/20 10:10:46;;;;;;;15.73;8.10;;;27.20;99.90;;;;;;4890064;29;20567;-91
2022/08/20 10:13:57;;;;;;;14.57;8.82;;;27.10;99.90;;;;;;4925989;29;20123;-92
2022/08/20 10:19:18;;;;;;;17.25;7.05;;;27.20;99.90;;;;;;4897988;29;20518;-90
2022/08/20 10:21:48;;;;;;;13.77;7.45;;;27.30;99.90;;;;;;4960519;28;20039;-88
2022/08/20 10:24:14;;;;;;;15.88;8.45;;;27.20;99.90;;;;;;4988818;28;20034;-89
2022/08/20 10:26:40;;;;;;;14.57;7.65;;;27.20;99.90;;;;;;5001334;28;20022;-91
2022/08/20 10:29:13;;;;;;;18.63;7.97;;;27.00;99.90;;;;;;5007531;28;20036;-93
2022/08/20 10:35:16;;;;;;;13.63;7.32;;;26.60;99.90;;;;;;4952759;28;20066;-93
2022/08/20 10:37:43;;;;;;;16.50;7.07;;;26.50;99.90;;;;;;4977350;28;20030;-93
2022/08/20 10:40:55;;;;;;;16.88;8.30;;;26.30;99.90;;;;;;4995319;28;20053;-95
2022/08/20 10:43:21;;;;;;;18.48;8.27;;;26.20;99.90;;;;;;4968394;28;20034;-95
2022/08/20 10:45:50;;;;;;;14.65;7.93;;;26.10;99.90;;;;;;4996484;28;20030;-94
2022/08/20 10:48:16;;;;;;;14.70;7.13;;;26.00;99.90;;;;;;4980410;28;20039;-95
2022/08/20 10:50:45;;;;;;;17.43;7.07;;;25.90;99.90;;;;;;4979077;28;20015;-94
2022/08/20 10:53:40;;;;;;;18.63;6.70;;;25.90;99.90;;;;;;4995434;28;20277;-94
2022/08/20 10:56:54;;;;;;;;;;;;;;;;;;;;;
2022/08/20 11:00:52;;;;;;;17.65;6.55;;;25.70;99.90;;;;;;5003917;28;20117;-92
2022/08/20 11:04:12;;;;;;;18.52;7.47;;;25.60;99.90;;;;;;4927032;29;20047;-92
2022/08/20 11:07:12;;;;;;;14.27;8.75;;;25.50;99.90;;;;;;4841057;29;20093;-92
2022/08/20 11:09:38;;;;;;;18.50;8.32;;;25.50;99.90;;;;;;4828230;29;20038;-91
2022/08/20 11:12:21;;;;;;;18.98;7.70;;;25.50;99.90;;;;;;4929986;29;20040;-93
2022/08/20 11:14:59;;;;;;;17.88;9.60;;;25.50;99.90;;;;;;4931275;29;20040;-94
2022/08/20 11:17:46;;;;;;;15.32;8.45;;;25.70;99.90;;;;;;4931821;29;20523;-94
2022/08/20 11:20:20;;;;;;;16.35;8.18;;;25.60;99.90;;;;;;4970327;28;20151;-93
2022/08/20 11:22:49;;;;;;;12.35;9.13;;;25.70;99.90;;;;;;5010048;28;20085;-92
2022/08/20 11:25:15;;;;;;;18.77;7.85;;;25.70;99.90;;;;;;5036071;28;20034;-91
2022/08/20 11:27:45;;;;;;;18.93;9.00;;;25.70;99.90;;;;;;5046811;23;20101;-57
2022/08/20 11:30:14;;;;;;;17.45;8.80;;;25.60;99.90;;;;;;5041103;28;20037;-56
2022/08/20 11:32:40;;;;;;;16.38;8.43;;;25.50;99.90;;;;;;5022147;28;20034;-56
2022/08/20 11:35:06;;;;;;;19.60;7.93;;;25.60;99.90;;;;;;5042471;28;20041;-56
2022/08/20 11:37:33;;;;;;;14.88;8.02;;;25.60;99.90;;;;;;5042311;28;20033;-56
2022/08/20 11:39:58;;;;;;;12.68;8.05;;;25.50;99.90;;;;;;5042257;28;20064;-55
2022/08/20 11:42:24;;;;;;;14.30;7.88;;;25.50;99.90;;;;;;5042558;28;20057;-55
2022/08/20 11:44:50;;;;;;;20.52;8.20;;;25.50;99.90;;;;;;5041086;28;20039;-55
2022/08/20 11:47:26;;;;;;;22.38;9.52;;;25.30;99.90;;;;;;5041613;28;20559;-56
2022/08/20 11:50:06;;;;;;;11.65;7.55;;;25.10;99.90;;;;;;5033356;28;20505;-56
2022/08/20 11:52:32;;;;;;;23.83;9.75;;;25.00;99.90;;;;;;5032759;28;20032;-55
2022/08/20 11:54:58;;;;;;;19.95;10.05;;;25.00;99.90;;;;;;5037977;28;20037;-55
2022/08/20 11:57:27;;;;;;;20.05;9.43;;;24.90;99.90;;;;;;5041984;28;20439;-56
2022/08/20 11:59:54;;;;;;;18.90;9.25;;;24.70;99.90;;;;;;5035363;28;20038;-57
2022/08/20 12:02:20;;;;;;;24.75;9.95;;;24.60;99.90;;;;;;5041879;28;20033;-56
2022/08/20 12:04:46;;;;;;;16.17;9.35;;;24.60;99.90;;;;;;5039768;28;20033;-56
2022/08/20 12:07:15;;;;;;;15.25;9.80;;;24.50;99.90;;;;;;5041036;28;20100;-56
2022/08/20 12:09:41;;;;;;;17.85;9.13;;;24.50;99.90;;;;;;5041394;28;20120;-57
2022/08/20 12:12:07;;;;;;;15.43;9.27;;;24.50;99.90;;;;;;5039515;28;20017;-56
2022/08/20 12:14:33;;;;;;;22.30;10.13;;;24.40;99.90;;;;;;5040583;28;20032;-55
2022/08/20 12:17:27;;;;;;;15.15;9.13;;;24.30;99.90;;;;;;5040316;28;20021;-56
2022/08/20 12:19:56;;;;;;;19.85;11.20;;;24.30;99.90;;;;;;5041677;28;20033;-55
2022/08/20 12:22:22;;;;;;;16.98;10.07;;;24.20;99.90;;;;;;5041271;28;20024;-55
2022/08/20 12:24:48;;;;;;;20.65;11.10;;;24.10;99.90;;;;;;5040823;28;20555;-57
2022/08/20 12:27:25;;;;;;;29.30;16.67;;;24.00;99.90;;;;;;5041146;28;20391;-55
2022/08/20 12:29:54;;;;;;;28.05;12.75;;;23.90;99.90;;;;;;5042076;28;20076;-56
2022/08/20 12:32:21;;;;;;;17.10;11.30;;;23.90;99.90;;;;;;5039479;28;20551;-56
2022/08/20 12:34:48;;;;;;;20.35;11.43;;;23.90;99.90;;;;;;5040492;28;20071;-55
2022/08/20 12:37:17;;;;;;;23.73;12.40;;;23.90;99.90;;;;;;5041400;28;20558;-56
2022/08/20 12:39:45;;;;;;;21.73;12.95;;;23.90;99.90;;;;;;5038848;28;20412;-56
2022/08/20 12:42:13;;;;;;;23.23;11.95;;;23.80;99.90;;;;;;5041781;28;20653;-56
2022/08/20 12:44:39;;;;;;;21.05;11.35;;;23.80;99.90;;;;;;5040207;28;20484;-55
2022/08/20 12:47:14;;;;;;;21.95;11.93;;;23.80;99.90;;;;;;5039383;28;20076;-56
2022/08/20 12:49:44;;;;;;;22.10;12.13;;;23.70;99.90;;;;;;5022232;28;20025;-56
2022/08/20 12:52:11;;;;;;;17.02;10.13;;;23.60;99.90;;;;;;5020695;28;20029;-55
2022/08/20 12:54:37;;;;;;;;;;;23.40;99.90;;;;;;5040726;28;20099;-56
2022/08/20 12:57:03;;;;;;;21.40;11.55;;;23.40;99.90;;;;;;5039013;28;19948;-56
2022/08/20 12:59:29;;;;;;;21.20;11.40;;;23.30;99.90;;;;;;5041061;28;20055;-56
2022/08/20 13:01:55;;;;;;;22.23;10.23;;;23.10;99.90;;;;;;5040914;28;20064;-56
2022/08/20 13:04:21;;;;;;;22.13;10.32;;;23.10;99.90;;;;;;5038255;28;20021;-57
2022/08/20 13:06:46;;;;;;;17.13;9.23;;;22.90;99.90;;;;;;5041684;28;20032;-54
2022/08/20 13:09:13;;;;;;;20.27;9.45;;;22.80;99.90;;;;;;5040074;28;20082;-53
2022/08/20 13:11:39;;;;;;;21.25;11.95;;;22.80;99.90;;;;;;5040766;28;20028;-54
2022/08/20 13:14:05;;;;;;;25.90;11.35;;;22.70;99.90;;;;;;5040988;28;20036;-55
2022/08/20 13:16:31;;;;;;;19.48;10.05;;;22.50;99.90;;;;;;5042009;28;20100;-55
2022/08/20 13:18:57;;;;;;;20.42;11.43;;;22.40;99.90;;;;;;5039099;28;20116;-55